KNEL/NEL METAR and TAF weather

Enter ICAO airport designator
Station Type Date Time Source
KNEL METAR 2023/02/05 13:00 UTC NOAA

KNEL 051300Z AUTO 22009KT CLR 00/M07 A3027 RMK AO2 SLP251 T00001067 $


Station Type Date Time Source
KNEL Decoded METAR 2023/02/05 13:00 UTC NOAA

Lakehurst Naval Air Station, NJ, United States (KNEL) 40-02N 074-19W 24M
Feb 05, 2023 - 08:00 AM EST / 2023.02.05 1300 UTC
Wind: from the SW (220 degrees) at 10 MPH (9 KT):0
Sky conditions: clear
Temperature: 32.0 F (0.0 C)
Windchill: 23 F (-5 C):1
Dew Point: 19.9 F (-6.7 C)
Relative Humidity: 60%
Pressure (altimeter): 30.27 in. Hg (1025 hPa)
ob: KNEL 051300Z AUTO 22009KT CLR 00/M07 A3027 RMK AO2 SLP251 T00001067
cycle: 13

Station Type Date Time Source
KNEL TAF UTC NOAA

Error!

Example: see airport list